Time;durP1;ratioP1;P1;durP2;ratioP2;P2;SDS_P1;SDS_P2;PMS_P1;PMS_P2;Temp;Humidity;BMP_temperature;BMP_pressure;BME280_temperature;BME280_humidity;BME280_pressure;Samples;Min_cycle;Max_cycle;Signal;HPM_P1;HPM_P2
2023/06/25 00:00:23;;;;;;;9.98;9.05;;;;;;;;;;4980257;28;20060;-82
2023/06/25 00:02:49;;;;;;;11.60;10.40;;;;;;;;;;4971306;28;20036;-83
2023/06/25 00:05:15;;;;;;;11.30;9.90;;;;;;;;;;5005116;28;20389;-82
2023/06/25 00:07:41;;;;;;;10.75;9.65;;;;;;;;;;5024329;28;20598;-82
2023/06/25 00:10:08;;;;;;;16.33;10.98;;;;;;;;;;4988824;28;20430;-83
2023/06/25 00:12:34;;;;;;;10.63;9.63;;;;;;;;;;4983716;28;20453;-82
2023/06/25 00:15:00;;;;;;;13.07;10.50;;;;;;;;;;5007264;28;20072;-82
2023/06/25 00:17:30;;;;;;;11.88;9.75;;;;;;;;;;4988141;28;20069;-82
2023/06/25 00:19:56;;;;;;;13.25;10.98;;;;;;;;;;4979830;28;20037;-82
2023/06/25 00:22:23;;;;;;;15.65;12.18;;;;;;;;;;5001652;28;20067;-82
2023/06/25 00:24:49;;;;;;;13.20;11.70;;;;;;;;;;5007665;28;20060;-82
2023/06/25 00:27:27;;;;;;;13.60;12.18;;;;;;;;;;4996328;28;20045;-82
2023/06/25 00:30:29;;;;;;;14.55;12.25;;;;;;;;;;4990718;28;20048;-82
2023/06/25 00:33:04;;;;;;;12.43;11.05;;;;;;;;;;4995290;28;20128;-82
2023/06/25 00:35:51;;;;;;;14.32;12.00;;;;;;;;;;4995134;28;20044;-82
2023/06/25 00:38:17;;;;;;;13.85;11.25;;;;;;;;;;5010704;28;20490;-82
2023/06/25 00:40:43;;;;;;;13.10;10.98;;;;;;;;;;4994667;28;20047;-82
2023/06/25 00:43:27;;;;;;;11.13;10.07;;;;;;;;;;4979113;28;20663;-82
2023/06/25 00:45:53;;;;;;;11.45;10.25;;;;;;;;;;4982265;28;20175;-82
2023/06/25 00:48:21;;;;;;;10.95;9.85;;;;;;;;;;4979099;28;20049;-83
2023/06/25 00:51:12;;;;;;;11.45;10.25;;;;;;;;;;4998424;28;20041;-83
2023/06/25 00:53:38;;;;;;;12.38;10.68;;;;;;;;;;5014329;28;20033;-83
2023/06/25 00:56:07;;;;;;;11.27;10.18;;;;;;;;;;5011088;28;23714;-82
2023/06/25 00:58:38;;;;;;;13.82;9.75;;;;;;;;;;4981444;28;20039;-82
2023/06/25 01:01:36;;;;;;;;;;;;;;;;;;;;;
2023/06/25 01:04:28;;;;;;;11.52;10.40;;;;;;;;;;4977068;28;21607;-83
2023/06/25 01:07:01;;;;;;;12.43;9.95;;;;;;;;;;4999633;28;20057;-82
2023/06/25 01:09:33;;;;;;;11.55;9.98;;;;;;;;;;4981867;28;20041;-83
2023/06/25 01:12:14;;;;;;;12.63;10.57;;;;;;;;;;4993142;28;20053;-82
2023/06/25 01:14:40;;;;;;;13.70;10.40;;;;;;;;;;4974356;28;20045;-82
2023/06/25 01:17:07;;;;;;;13.38;11.07;;;;;;;;;;4990311;28;20332;-82
2023/06/25 01:19:36;;;;;;;15.30;12.25;;;;;;;;;;4987520;28;20068;-83
2023/06/25 01:22:11;;;;;;;13.57;12.02;;;;;;;;;;4988830;28;20506;-82
2023/06/25 01:24:53;;;;;;;13.52;12.20;;;;;;;;;;4970278;28;20094;-82
2023/06/25 01:27:26;;;;;;;12.93;11.63;;;;;;;;;;4974793;28;20756;-82
2023/06/25 01:30:34;;;;;;;15.07;12.98;;;;;;;;;;4989427;28;20075;-83
2023/06/25 01:33:00;;;;;;;14.73;12.23;;;;;;;;;;5000286;28;20044;-82
2023/06/25 01:35:26;;;;;;;14.88;13.02;;;;;;;;;;4995534;28;20576;-82
2023/06/25 01:41:20;;;;;;;14.63;12.85;;;;;;;;;;4994767;28;20045;-83
2023/06/25 01:43:46;;;;;;;17.63;13.35;;;;;;;;;;4975932;28;20048;-82
2023/06/25 01:46:12;;;;;;;15.02;12.93;;;;;;;;;;4982653;28;20119;-83
2023/06/25 01:48:38;;;;;;;15.80;14.10;;;;;;;;;;4988327;28;20071;-82
2023/06/25 01:51:04;;;;;;;15.73;13.25;;;;;;;;;;4987852;28;20449;-82
2023/06/25 01:53:30;;;;;;;14.88;12.93;;;;;;;;;;4983326;28;20033;-82
2023/06/25 01:55:57;;;;;;;14.15;11.95;;;;;;;;;;4977774;28;20053;-82
2023/06/25 01:58:26;;;;;;;17.08;14.13;;;;;;;;;;4977987;28;20463;-82
2023/06/25 02:00:52;;;;;;;14.82;13.32;;;;;;;;;;4968256;28;20068;-82
2023/06/25 02:06:14;;;;;;;14.30;12.82;;;;;;;;;;5000400;28;20424;-82
2023/06/25 02:08:52;;;;;;;14.45;12.85;;;;;;;;;;4998403;28;20054;-82
2023/06/25 02:11:42;;;;;;;15.90;12.98;;;;;;;;;;4990287;28;20502;-82
2023/06/25 02:14:20;;;;;;;14.73;13.15;;;;;;;;;;4974204;28;20049;-82
2023/06/25 02:16:47;;;;;;;14.95;12.93;;;;;;;;;;4991119;28;20113;-82
2023/06/25 02:19:13;;;;;;;13.77;12.30;;;;;;;;;;4999435;28;20757;-83
2023/06/25 02:21:44;;;;;;;14.90;13.40;;;;;;;;;;4982660;28;20033;-83
2023/06/25 02:24:13;;;;;;;15.52;13.32;;;;;;;;;;4982246;28;20095;-82
2023/06/25 02:26:40;;;;;;;15.98;14.27;;;;;;;;;;4982033;28;20512;-82
2023/06/25 02:29:18;;;;;;;16.85;13.40;;;;;;;;;;5013769;28;20845;-82
2023/06/25 02:31:45;;;;;;;14.73;12.98;;;;;;;;;;4992662;28;20199;-83
2023/06/25 02:34:11;;;;;;;15.88;13.38;;;;;;;;;;4984030;28;20474;-83
2023/06/25 02:36:37;;;;;;;15.02;13.43;;;;;;;;;;4999692;28;20045;-82
2023/06/25 02:39:03;;;;;;;16.92;14.20;;;;;;;;;;4978610;28;20178;-83
2023/06/25 02:41:29;;;;;;;14.82;13.32;;;;;;;;;;5015600;28;20036;-83
2023/06/25 02:43:55;;;;;;;15.52;13.45;;;;;;;;;;5006223;28;20079;-82
2023/06/25 02:46:21;;;;;;;15.75;13.23;;;;;;;;;;4980184;28;20048;-83
2023/06/25 02:48:51;;;;;;;15.88;13.85;;;;;;;;;;4990401;28;20170;-82
2023/06/25 02:51:17;;;;;;;15.90;13.90;;;;;;;;;;4976271;28;20164;-83
2023/06/25 02:56:36;;;;;;;16.05;13.45;;;;;;;;;;4950602;28;20506;-82
2023/06/25 02:59:24;;;;;;;;;;;;;;;;;;;;;
2023/06/25 03:01:53;;;;;;;19.25;15.25;;;;;;;;;;4975201;28;20076;-83
2023/06/25 03:04:20;;;;;;;18.52;14.93;;;;;;;;;;4962896;28;20473;-82
2023/06/25 03:06:46;;;;;;;17.70;15.23;;;;;;;;;;4957445;28;20042;-83
2023/06/25 03:09:12;;;;;;;16.05;14.35;;;;;;;;;;4995965;28;20061;-82
2023/06/25 03:14:48;;;;;;;16.85;15.05;;;;;;;;;;4990902;28;20052;-82
2023/06/25 03:20:13;;;;;;;17.10;14.95;;;;;;;;;;4979847;28;20034;-82
2023/06/25 03:22:39;;;;;;;19.63;15.60;;;;;;;;;;4964725;28;20030;-82
2023/06/25 03:25:32;;;;;;;17.20;14.30;;;;;;;;;;4990710;28;20857;-82
2023/06/25 03:31:45;;;;;;;18.67;15.80;;;;;;;;;;5001890;28;20060;-83
2023/06/25 03:34:29;;;;;;;20.63;16.15;;;;;;;;;;4984927;28;20046;-82
2023/06/25 03:36:56;;;;;;;18.73;15.85;;;;;;;;;;4956896;28;20052;-83
2023/06/25 03:39:56;;;;;;;18.25;16.02;;;;;;;;;;4980012;28;20520;-82
2023/06/25 03:42:29;;;;;;;19.92;16.38;;;;;;;;;;4922987;28;20411;-83
2023/06/25 03:45:08;;;;;;;21.25;16.02;;;;;;;;;;4919608;28;20064;-83
2023/06/25 03:47:50;;;;;;;19.48;15.27;;;;;;;;;;4937270;28;20053;-89
2023/06/25 03:50:22;;;;;;;19.02;15.57;;;;;;;;;;4933681;28;20140;-88
2023/06/25 03:52:48;;;;;;;19.98;16.17;;;;;;;;;;4957214;28;20062;-88
2023/06/25 03:55:17;;;;;;;20.50;16.65;;;;;;;;;;4945429;28;20048;-88
2023/06/25 03:57:43;;;;;;;19.88;14.90;;;;;;;;;;4979672;28;20041;-88
2023/06/25 04:00:10;;;;;;;21.13;16.65;;;;;;;;;;4971517;28;20124;-88
2023/06/25 04:05:54;;;;;;;18.25;15.55;;;;;;;;;;4971439;28;20045;-88
2023/06/25 04:08:20;;;;;;;19.38;16.98;;;;;;;;;;4979371;28;20049;-88
2023/06/25 04:10:46;;;;;;;17.98;15.77;;;;;;;;;;4963043;28;20133;-88
2023/06/25 04:13:13;;;;;;;22.38;17.10;;;;;;;;;;4982334;28;20048;-88
2023/06/25 04:15:39;;;;;;;18.77;15.52;;;;;;;;;;5019270;28;20131;-88
2023/06/25 04:18:05;;;;;;;20.83;17.70;;;;;;;;;;5019681;28;21671;-88
2023/06/25 04:20:31;;;;;;;19.83;16.80;;;;;;;;;;5022499;28;20511;-88
2023/06/25 04:22:57;;;;;;;21.85;17.38;;;;;;;;;;4995735;28;20041;-88
2023/06/25 04:25:36;;;;;;;22.63;17.27;;;;;;;;;;5017368;28;20039;-88
2023/06/25 04:28:14;;;;;;;21.55;17.50;;;;;;;;;;4996149;28;20098;-88
2023/06/25 04:30:40;;;;;;;18.13;15.80;;;;;;;;;;5000113;28;20052;-88
2023/06/25 04:33:06;;;;;;;17.75;15.07;;;;;;;;;;4998311;28;20098;-88
2023/06/25 04:35:36;;;;;;;18.63;14.57;;;;;;;;;;5019448;28;20123;-88
2023/06/25 04:41:22;;;;;;;;;;;;;;;;;;4953878;28;20490;-89
2023/06/25 04:47:19;;;;;;;18.00;14.98;;;;;;;;;;4935835;28;21297;-89
2023/06/25 04:50:12;;;;;;;;;;;;;;;;;;;;;
2023/06/25 04:53:29;;;;;;;15.35;13.20;;;;;;;;;;4859947;29;20049;-89
2023/06/25 04:56:07;;;;;;;16.25;14.55;;;;;;;;;;4839254;29;20915;-89
2023/06/25 05:02:37;;;;;;;19.08;15.23;;;;;;;;;;4933318;28;20085;-89
2023/06/25 05:05:17;;;;;;;19.73;16.50;;;;;;;;;;4947863;28;20061;-89
2023/06/25 05:08:04;;;;;;;21.98;18.52;;;;;;;;;;4938460;28;20434;-89
2023/06/25 05:10:42;;;;;;;21.77;18.02;;;;;;;;;;4977251;28;20211;-88
2023/06/25 05:13:16;;;;;;;20.60;18.20;;;;;;;;;;5003488;28;20099;-89
2023/06/25 05:16:03;;;;;;;20.63;18.33;;;;;;;;;;4953211;28;20061;-89
2023/06/25 05:18:53;;;;;;;;;;;;;;;;;;;;;
2023/06/25 05:24:36;;;;;;;22.75;17.52;;;;;;;;;;5020587;28;20044;-89
2023/06/25 05:27:19;;;;;;;20.05;17.08;;;;;;;;;;4993320;28;22878;-88
2023/06/25 05:30:06;;;;;;;21.92;18.25;;;;;;;;;;5008865;28;20508;-88
2023/06/25 05:32:43;;;;;;;23.23;17.15;;;;;;;;;;5015628;28;20390;-89
2023/06/25 05:38:36;;;;;;;20.20;17.80;;;;;;;;;;5027470;28;20055;-89
2023/06/25 05:41:20;;;;;;;;;;;;;;;;;;;;;
2023/06/25 05:43:55;;;;;;;19.85;16.20;;;;;;;;;;5028516;28;20120;-89
2023/06/25 05:52:53;;;;;;;18.23;16.13;;;;;;;;;;5012898;28;20049;-89
2023/06/25 05:56:18;;;;;;;21.73;16.75;;;;;;;;;;4984265;28;20045;-84
2023/06/25 06:02:11;;;;;;;19.08;16.52;;;;;;;;;;4915061;28;20127;-86
2023/06/25 06:05:18;;;;;;;18.95;15.23;;;;;;;;;;4900927;29;20037;-85
2023/06/25 06:08:55;;;;;;;17.60;14.70;;;;;;;;;;5013084;28;20499;-85
2023/06/25 06:14:43;;;;;;;;;;;;;;;;;;;;;
2023/06/25 06:17:18;;;;;;;20.50;17.00;;;;;;;;;;4964982;28;20129;-85
2023/06/25 06:20:16;;;;;;;17.40;15.27;;;;;;;;;;4977983;28;20049;-85
2023/06/25 06:23:04;;;;;;;;;;;;;;;;;;;;;
2023/06/25 06:28:56;;;;;;;21.27;16.20;;;;;;;;;;4987040;28;20045;-85
2023/06/25 06:31:40;;;;;;;20.58;18.30;;;;;;;;;;4951031;28;20166;-85
2023/06/25 06:40:55;;;;;;;18.45;16.52;;;;;;;;;;4907749;29;20460;-85
2023/06/25 06:47:05;;;;;;;20.15;16.67;;;;;;;;;;4911229;29;20052;-91
2023/06/25 06:49:43;;;;;;;15.97;14.07;;;;;;;;;;4888375;29;20182;-91
2023/06/25 06:55:33;;;;;;;;;;;;;;;;;;;;;
2023/06/25 06:58:04;;;;;;;17.70;15.80;;;;;;;;;;4903297;28;20063;-91
2023/06/25 07:00:38;;;;;;;18.85;15.88;;;;;;;;;;4933186;28;20086;-92
2023/06/25 07:03:07;;;;;;;19.38;16.00;;;;;;;;;;4936678;28;23310;-92
2023/06/25 07:05:41;;;;;;;17.38;15.60;;;;;;;;;;4977565;28;20417;-91
2023/06/25 07:11:34;;;;;;;17.58;15.65;;;;;;;;;;5021144;28;22063;-89
2023/06/25 07:14:00;;;;;;;15.13;13.63;;;;;;;;;;5010115;28;20193;-89
2023/06/25 07:16:26;;;;;;;14.25;12.68;;;;;;;;;;5026906;28;20095;-89
2023/06/25 07:18:53;;;;;;;14.80;13.30;;;;;;;;;;4998505;28;20126;-89
2023/06/25 07:21:22;;;;;;;16.40;14.77;;;;;;;;;;5012847;28;20045;-89
2023/06/25 07:23:48;;;;;;;18.42;13.43;;;;;;;;;;4999397;28;20167;-89
2023/06/25 07:26:19;;;;;;;14.43;13.13;;;;;;;;;;4999016;28;20052;-89
2023/06/25 07:28:56;;;;;;;17.63;15.52;;;;;;;;;;5024807;28;20147;-88
2023/06/25 07:31:22;;;;;;;15.40;13.82;;;;;;;;;;4994887;28;20452;-89
2023/06/25 07:33:51;;;;;;;14.43;13.00;;;;;;;;;;4993387;28;20390;-89
2023/06/25 07:36:18;;;;;;;15.50;13.85;;;;;;;;;;5000385;28;20041;-89
2023/06/25 07:38:46;;;;;;;12.48;11.07;;;;;;;;;;4999409;28;20044;-89
2023/06/25 07:41:15;;;;;;;13.90;12.50;;;;;;;;;;5016495;28;20045;-89
2023/06/25 07:43:43;;;;;;;13.80;11.50;;;;;;;;;;5001327;28;20477;-89
2023/06/25 07:46:09;;;;;;;13.35;12.15;;;;;;;;;;4993383;28;20037;-89
2023/06/25 07:48:35;;;;;;;15.52;13.10;;;;;;;;;;5011162;28;20573;-88
2023/06/25 07:54:26;;;;;;;11.48;10.48;;;;;;;;;;4971050;28;20057;-89
2023/06/25 07:56:55;;;;;;;12.82;11.52;;;;;;;;;;4968354;28;20045;-89
2023/06/25 07:59:24;;;;;;;12.50;11.30;;;;;;;;;;4998323;28;20055;-89
2023/06/25 08:01:53;;;;;;;13.20;11.98;;;;;;;;;;4977277;28;20069;-89
2023/06/25 08:04:27;;;;;;;12.95;11.70;;;;;;;;;;4984873;28;20444;-89
2023/06/25 08:07:26;;;;;;;13.30;11.63;;;;;;;;;;4985452;28;20079;-90
2023/06/25 08:10:24;;;;;;;;;;;;;;;;;;;;;
2023/06/25 08:13:18;;;;;;;;;;;;;;;;;;;;;
2023/06/25 08:15:55;;;;;;;11.07;10.07;;;;;;;;;;4939988;28;20299;-90
2023/06/25 08:18:24;;;;;;;11.57;10.57;;;;;;;;;;4921965;28;20712;-90
2023/06/25 08:20:53;;;;;;;11.30;9.90;;;;;;;;;;4921661;28;20456;-89
2023/06/25 08:23:28;;;;;;;10.23;9.30;;;;;;;;;;4940060;28;20153;-90
2023/06/25 08:25:55;;;;;;;9.15;8.25;;;;;;;;;;4921076;28;20047;-91
2023/06/25 08:28:27;;;;;;;9.98;8.90;;;;;;;;;;4907812;29;20078;-90
2023/06/25 08:30:56;;;;;;;9.88;8.73;;;;;;;;;;4919625;28;20150;-89
2023/06/25 08:33:29;;;;;;;9.57;8.65;;;;;;;;;;4910301;29;20147;-90
2023/06/25 08:35:58;;;;;;;9.07;8.23;;;;;;;;;;4903478;28;20051;-90
2023/06/25 08:38:27;;;;;;;9.85;9.05;;;;;;;;;;4938190;28;20086;-89
2023/06/25 08:40:56;;;;;;;8.00;7.30;;;;;;;;;;4915818;28;20058;-89
2023/06/25 08:43:28;;;;;;;9.15;8.18;;;;;;;;;;4926179;28;20062;-90
2023/06/25 08:45:54;;;;;;;9.48;8.57;;;;;;;;;;4968917;28;20054;-91
2023/06/25 08:48:20;;;;;;;8.95;8.10;;;;;;;;;;5007860;28;20053;-89
2023/06/25 08:51:10;;;;;;;8.80;7.90;;;;;;;;;;4996668;28;20805;-89
2023/06/25 08:53:36;;;;;;;7.82;7.10;;;;;;;;;;4993468;28;20033;-89
2023/06/25 08:56:05;;;;;;;9.55;7.85;;;;;;;;;;4980249;28;20041;-89
2023/06/25 08:58:36;;;;;;;9.30;8.40;;;;;;;;;;4994806;28;20226;-90
2023/06/25 09:01:05;;;;;;;8.68;7.88;;;;;;;;;;4995167;28;20456;-89
2023/06/25 09:03:33;;;;;;;7.15;6.55;;;;;;;;;;4974247;28;20496;-88
2023/06/25 09:05:59;;;;;;;6.15;5.43;;;;;;;;;;4957239;28;20065;-90
2023/06/25 09:08:26;;;;;;;7.07;6.10;;;;;;;;;;4959349;28;20064;-89
2023/06/25 09:11:08;;;;;;;6.07;5.47;;;;;;;;;;4958193;28;20069;-89
2023/06/25 09:14:09;;;;;;;6.28;5.72;;;;;;;;;;4965248;28;20049;-89
2023/06/25 09:17:01;;;;;;;6.03;5.30;;;;;;;;;;4962148;28;20061;-89
2023/06/25 09:19:30;;;;;;;5.13;4.72;;;;;;;;;;4964188;28;20409;-89
2023/06/25 09:21:56;;;;;;;6.35;5.00;;;;;;;;;;4978723;28;20048;-89
2023/06/25 09:24:27;;;;;;;5.60;4.57;;;;;;;;;;4984925;28;20564;-88
2023/06/25 09:26:53;;;;;;;5.03;4.60;;;;;;;;;;4960512;28;20044;-89
2023/06/25 09:29:39;;;;;;;5.18;4.40;;;;;;;;;;4959304;28;20096;-90
2023/06/25 09:32:37;;;;;;;5.83;4.40;;;;;;;;;;4950344;28;21347;-89
2023/06/25 09:35:03;;;;;;;5.03;4.30;;;;;;;;;;4981578;28;20870;-90
2023/06/25 09:37:49;;;;;;;;;;;;;;;;;;;;;
2023/06/25 09:44:09;;;;;;;4.75;4.25;;;;;;;;;;5000208;28;20044;-90
2023/06/25 09:46:39;;;;;;;4.65;4.25;;;;;;;;;;4977411;28;20447;-89
2023/06/25 09:49:07;;;;;;;;;;;;;;;;;;4972302;28;21084;-90
2023/06/25 09:51:52;;;;;;;5.15;4.65;;;;;;;;;;4990961;28;20392;-89
2023/06/25 09:54:25;;;;;;;5.05;4.55;;;;;;;;;;4992183;28;20413;-89
2023/06/25 09:56:54;;;;;;;6.10;4.85;;;;;;;;;;4995140;28;20047;-90
2023/06/25 09:59:28;;;;;;;4.85;4.40;;;;;;;;;;4989982;28;20040;-89
2023/06/25 10:01:57;;;;;;;4.80;4.32;;;;;;;;;;4994123;28;20044;-89
2023/06/25 10:04:25;;;;;;;5.63;4.32;;;;;;;;;;5008271;28;20041;-89
2023/06/25 10:07:18;;;;;;;4.57;3.80;;;;;;;;;;4982057;28;20112;-89
2023/06/25 10:09:59;;;;;;;4.22;3.83;;;;;;;;;;4997823;28;20131;-89
2023/06/25 10:12:26;;;;;;;4.20;3.80;;;;;;;;;;4978578;28;20793;-89
2023/06/25 10:14:55;;;;;;;4.18;3.65;;;;;;;;;;4974517;28;20099;-89
2023/06/25 10:17:22;;;;;;;4.22;3.25;;;;;;;;;;4976983;28;20053;-89
2023/06/25 10:19:56;;;;;;;4.03;3.65;;;;;;;;;;4975743;28;20169;-89
2023/06/25 10:22:26;;;;;;;4.82;3.53;;;;;;;;;;4976386;28;20401;-88
2023/06/25 10:24:52;;;;;;;3.50;3.20;;;;;;;;;;4976611;28;20051;-89
2023/06/25 10:27:29;;;;;;;3.93;3.50;;;;;;;;;;4977303;28;20048;-89
2023/06/25 10:30:00;;;;;;;5.57;3.30;;;;;;;;;;4990659;28;20044;-89
2023/06/25 10:32:41;;;;;;;3.97;3.58;;;;;;;;;;4997176;28;20048;-89
2023/06/25 10:35:07;;;;;;;3.80;3.50;;;;;;;;;;4993391;28;20047;-89
2023/06/25 10:37:34;;;;;;;5.25;3.80;;;;;;;;;;4992596;28;20362;-90
2023/06/25 10:40:04;;;;;;;3.77;3.47;;;;;;;;;;4990749;28;20033;-88
2023/06/25 10:42:33;;;;;;;4.20;3.65;;;;;;;;;;4997588;28;20416;-89
2023/06/25 10:45:02;;;;;;;4.28;3.67;;;;;;;;;;4975512;28;20051;-89
2023/06/25 10:47:34;;;;;;;3.80;3.50;;;;;;;;;;4981386;28;20127;-90
2023/06/25 10:50:00;;;;;;;3.67;3.35;;;;;;;;;;4980478;28;20041;-90
2023/06/25 10:52:30;;;;;;;3.15;2.95;;;;;;;;;;4995198;28;20067;-90
2023/06/25 10:55:03;;;;;;;4.88;3.30;;;;;;;;;;4995307;28;20053;-89
2023/06/25 10:57:31;;;;;;;5.53;3.22;;;;;;;;;;5010654;28;20405;-89
2023/06/25 10:59:57;;;;;;;4.13;3.72;;;;;;;;;;4986551;28;20048;-89
2023/06/25 11:02:26;;;;;;;5.47;3.75;;;;;;;;;;4980326;28;20803;-90
2023/06/25 11:05:01;;;;;;;4.15;3.50;;;;;;;;;;4993753;28;20092;-89
2023/06/25 11:07:32;;;;;;;3.70;3.40;;;;;;;;;;4996077;28;20053;-89
2023/06/25 11:10:06;;;;;;;4.93;3.85;;;;;;;;;;4986657;28;20056;-89
2023/06/25 11:12:35;;;;;;;4.32;3.67;;;;;;;;;;4983410;28;20140;-89
2023/06/25 11:15:04;;;;;;;3.25;2.92;;;;;;;;;;4992159;28;20052;-89
2023/06/25 11:17:33;;;;;;;3.75;3.35;;;;;;;;;;4979895;28;20041;-89
2023/06/25 11:20:01;;;;;;;5.65;3.53;;;;;;;;;;4975813;28;20728;-89
2023/06/25 11:22:30;;;;;;;10.45;4.32;;;;;;;;;;5008715;28;20044;-86
2023/06/25 11:24:57;;;;;;;4.00;3.60;;;;;;;;;;4977715;28;20135;-86
2023/06/25 11:27:26;;;;;;;4.63;4.15;;;;;;;;;;4977842;28;20072;-89
2023/06/25 11:29:57;;;;;;;3.92;3.58;;;;;;;;;;4970942;28;20055;-89
2023/06/25 11:32:30;;;;;;;3.83;3.53;;;;;;;;;;4998618;28;23334;-89
2023/06/25 11:34:56;;;;;;;3.75;3.45;;;;;;;;;;4996041;28;20098;-90
2023/06/25 11:37:27;;;;;;;4.13;3.50;;;;;;;;;;4979830;28;20064;-89
2023/06/25 11:40:01;;;;;;;3.25;2.80;;;;;;;;;;4975057;28;20055;-89
2023/06/25 11:42:27;;;;;;;3.90;3.42;;;;;;;;;;4981962;28;20327;-89
2023/06/25 11:45:00;;;;;;;3.83;3.53;;;;;;;;;;4974561;28;20170;-89
2023/06/25 11:47:29;;;;;;;3.67;3.38;;;;;;;;;;4996000;28;20175;-89
2023/06/25 11:49:56;;;;;;;3.60;3.25;;;;;;;;;;4996405;28;20049;-89
2023/06/25 11:52:26;;;;;;;4.55;3.08;;;;;;;;;;4985224;28;20057;-89
2023/06/25 11:54:52;;;;;;;3.80;3.50;;;;;;;;;;5007671;28;20120;-89
2023/06/25 11:57:21;;;;;;;3.78;3.47;;;;;;;;;;4989734;28;20105;-87
2023/06/25 11:59:49;;;;;;;3.83;3.53;;;;;;;;;;4980840;28;20123;-87
2023/06/25 12:02:18;;;;;;;4.20;3.80;;;;;;;;;;4999970;28;20560;-87
2023/06/25 12:04:47;;;;;;;3.72;3.42;;;;;;;;;;5002908;28;20060;-87
2023/06/25 12:07:16;;;;;;;4.30;3.90;;;;;;;;;;4984955;28;20052;-87
2023/06/25 12:09:45;;;;;;;4.25;3.70;;;;;;;;;;4999431;28;20036;-87
2023/06/25 12:12:11;;;;;;;3.75;3.45;;;;;;;;;;5000859;28;20128;-86
2023/06/25 12:14:42;;;;;;;3.88;3.50;;;;;;;;;;4984787;28;20100;-88
2023/06/25 12:17:23;;;;;;;5.07;3.97;;;;;;;;;;5011200;28;20580;-89
2023/06/25 12:20:04;;;;;;;5.57;4.10;;;;;;;;;;4988100;28;20036;-88
2023/06/25 12:22:35;;;;;;;5.25;4.00;;;;;;;;;;4993778;28;20199;-88
2023/06/25 12:25:03;;;;;;;4.78;4.38;;;;;;;;;;4960134;28;20061;-88
2023/06/25 12:27:29;;;;;;;;;;;;;;;;;;4980508;28;20037;-89
2023/06/25 12:29:55;;;;;;;4.13;3.72;;;;;;;;;;5009652;28;19924;-88
2023/06/25 12:32:22;;;;;;;4.32;3.80;;;;;;;;;;4975073;28;20049;-88
2023/06/25 12:34:48;;;;;;;5.25;3.70;;;;;;;;;;4990596;28;20051;-89
2023/06/25 12:37:16;;;;;;;4.25;3.88;;;;;;;;;;4972536;28;20062;-89
2023/06/25 12:39:42;;;;;;;4.90;4.50;;;;;;;;;;4992307;28;20029;-88
2023/06/25 12:42:08;;;;;;;4.68;4.28;;;;;;;;;;4997198;28;20045;-88
2023/06/25 12:44:34;;;;;;;3.97;3.55;;;;;;;;;;5002729;28;20036;-88
2023/06/25 12:47:03;;;;;;;5.53;3.90;;;;;;;;;;4990547;28;20033;-87
2023/06/25 12:49:29;;;;;;;4.72;4.32;;;;;;;;;;4992956;28;20138;-89
2023/06/25 12:52:01;;;;;;;4.60;4.20;;;;;;;;;;5001199;28;20083;-89
2023/06/25 12:54:27;;;;;;;4.70;4.20;;;;;;;;;;5001427;28;20059;-88
2023/06/25 12:56:53;;;;;;;5.32;4.28;;;;;;;;;;4998246;28;20045;-87
2023/06/25 12:59:19;;;;;;;4.78;4.38;;;;;;;;;;4988319;28;20075;-88
2023/06/25 13:01:48;;;;;;;5.22;4.38;;;;;;;;;;4988016;28;20374;-88
2023/06/25 13:04:14;;;;;;;6.90;4.63;;;;;;;;;;4998546;28;20371;-88
2023/06/25 13:06:40;;;;;;;4.60;4.20;;;;;;;;;;5018371;28;20040;-88
2023/06/25 13:09:06;;;;;;;5.43;4.07;;;;;;;;;;5017020;28;20044;-88
2023/06/25 13:11:34;;;;;;;5.63;4.10;;;;;;;;;;5005872;28;20473;-88
2023/06/25 13:14:00;;;;;;;4.97;4.40;;;;;;;;;;4988598;28;20154;-88
2023/06/25 13:16:27;;;;;;;5.32;4.82;;;;;;;;;;5009796;28;20048;-87
2023/06/25 13:18:53;;;;;;;4.60;4.18;;;;;;;;;;4981100;28;20153;-88
2023/06/25 13:21:19;;;;;;;5.22;4.80;;;;;;;;;;4983082;28;20045;-86
2023/06/25 13:23:46;;;;;;;4.85;4.40;;;;;;;;;;4982665;28;20041;-89
2023/06/25 13:26:13;;;;;;;4.72;4.30;;;;;;;;;;4984204;28;20492;-87
2023/06/25 13:28:39;;;;;;;;;;;;;;;;;;5003131;28;20155;-88
2023/06/25 13:31:05;;;;;;;4.25;3.85;;;;;;;;;;5003509;28;21760;-88
2023/06/25 13:33:31;;;;;;;4.40;4.00;;;;;;;;;;5000784;28;20687;-88
2023/06/25 13:36:00;;;;;;;4.65;4.25;;;;;;;;;;4982210;28;20190;-87
2023/06/25 13:38:26;;;;;;;6.97;4.25;;;;;;;;;;5003039;28;20087;-88
2023/06/25 13:40:52;;;;;;;4.97;4.50;;;;;;;;;;4982255;28;20401;-88
2023/06/25 13:43:18;;;;;;;4.88;4.47;;;;;;;;;;4986428;28;20053;-88
2023/06/25 13:45:47;;;;;;;4.65;4.25;;;;;;;;;;4986527;28;20057;-88
2023/06/25 13:48:13;;;;;;;4.50;4.10;;;;;;;;;;4998983;28;20087;-88
2023/06/25 13:50:39;;;;;;;5.43;4.18;;;;;;;;;;5034111;28;20041;-89
2023/06/25 13:53:05;;;;;;;4.68;4.28;;;;;;;;;;5014309;28;21686;-88
2023/06/25 13:55:31;;;;;;;5.05;4.55;;;;;;;;;;5024767;28;20041;-88
2023/06/25 13:57:58;;;;;;;4.45;4.05;;;;;;;;;;5003173;28;20173;-88
2023/06/25 14:00:24;;;;;;;4.80;4.20;;;;;;;;;;5023352;28;20047;-90
2023/06/25 14:02:50;;;;;;;5.40;4.88;;;;;;;;;;5009785;28;20391;-89
2023/06/25 14:05:16;;;;;;;4.93;4.47;;;;;;;;;;5022095;28;20027;-89
2023/06/25 14:07:42;;;;;;;4.30;3.90;;;;;;;;;;5028028;28;20032;-89
2023/06/25 14:10:08;;;;;;;4.82;4.20;;;;;;;;;;5007722;28;20037;-89
2023/06/25 14:13:32;;;;;;;;;;;;;;;;;;;;;
2023/06/25 14:16:16;;;;;;;4.72;4.05;;;;;;;;;;5010373;28;20064;-86
2023/06/25 14:18:47;;;;;;;4.32;3.72;;;;;;;;;;4996872;28;20116;-89
2023/06/25 14:21:13;;;;;;;5.35;4.28;;;;;;;;;;5001061;28;20045;-89
2023/06/25 14:26:50;;;;;;;5.03;4.00;;;;;;;;;;4921436;29;20095;-88
2023/06/25 14:29:21;;;;;;;6.47;4.47;;;;;;;;;;4962520;28;20157;-88
2023/06/25 14:31:47;;;;;;;5.35;4.38;;;;;;;;;;4955416;28;20038;-86
2023/06/25 14:34:13;;;;;;;4.70;4.28;;;;;;;;;;4953059;28;20057;-87
2023/06/25 14:36:58;;;;;;;4.53;4.10;;;;;;;;;;4978505;28;20050;-88
2023/06/25 14:42:26;;;;;;;4.88;4.40;;;;;;;;;;4957189;28;19933;-89
2023/06/25 14:45:04;;;;;;;4.28;3.97;;;;;;;;;;4923081;28;20129;-89
2023/06/25 14:47:46;;;;;;;;;;;;;;;;;;;;;
2023/06/25 14:50:38;;;;;;;5.22;4.72;;;;;;;;;;4999841;28;20041;-89
2023/06/25 14:53:05;;;;;;;4.95;4.45;;;;;;;;;;4968560;28;20049;-88
2023/06/25 14:55:31;;;;;;;5.97;5.20;;;;;;;;;;4992469;28;20059;-88
2023/06/25 14:58:08;;;;;;;7.78;4.88;;;;;;;;;;4967524;28;20069;-89
2023/06/25 15:00:34;;;;;;;5.15;4.65;;;;;;;;;;5001128;28;20083;-88
2023/06/25 15:03:01;;;;;;;4.72;4.38;;;;;;;;;;4991248;28;20132;-89
2023/06/25 15:05:27;;;;;;;5.03;4.63;;;;;;;;;;4993097;28;20113;-88
2023/06/25 15:07:53;;;;;;;4.97;4.32;;;;;;;;;;4968826;28;20069;-89
2023/06/25 15:10:22;;;;;;;5.38;4.72;;;;;;;;;;4991327;28;20045;-89
2023/06/25 15:12:54;;;;;;;5.25;4.75;;;;;;;;;;4994937;28;22179;-90
2023/06/25 15:15:22;;;;;;;4.80;4.30;;;;;;;;;;4983770;28;20073;-89
2023/06/25 15:18:08;;;;;;;5.07;4.57;;;;;;;;;;4985700;28;20486;-89
2023/06/25 15:20:39;;;;;;;5.60;5.10;;;;;;;;;;5007183;28;20045;-89
2023/06/25 15:23:05;;;;;;;5.28;4.78;;;;;;;;;;4963860;28;20034;-89
2023/06/25 15:25:40;;;;;;;5.10;4.68;;;;;;;;;;4975772;28;20682;-91
2023/06/25 15:28:10;;;;;;;5.13;4.72;;;;;;;;;;4977875;28;21079;-91
2023/06/25 15:30:45;;;;;;;4.97;4.47;;;;;;;;;;4964078;28;20132;-90
2023/06/25 15:33:24;;;;;;;5.30;4.82;;;;;;;;;;4980711;28;20120;-89
2023/06/25 15:35:59;;;;;;;6.22;4.80;;;;;;;;;;4995626;28;20068;-90
2023/06/25 15:38:28;;;;;;;4.97;4.47;;;;;;;;;;4979772;28;20057;-90
2023/06/25 15:41:20;;;;;;;4.97;4.57;;;;;;;;;;4989471;28;20708;-90
2023/06/25 15:44:11;;;;;;;5.68;4.65;;;;;;;;;;4974952;28;20505;-90
2023/06/25 15:46:37;;;;;;;5.20;4.60;;;;;;;;;;4964817;28;20053;-90
2023/06/25 15:49:49;;;;;;;5.45;4.95;;;;;;;;;;4982199;28;20075;-90
2023/06/25 15:52:20;;;;;;;5.37;4.90;;;;;;;;;;4963285;28;20052;-90
2023/06/25 15:55:24;;;;;;;5.07;4.68;;;;;;;;;;4931343;28;20345;-90
2023/06/25 15:58:20;;;;;;;;;;;;;;;;;;;;;
2023/06/25 16:01:03;;;;;;;5.40;4.95;;;;;;;;;;4965147;28;20127;-89
2023/06/25 16:06:29;;;;;;;;;;;;;;;;;;;;;
2023/06/25 16:12:37;;;;;;;5.50;4.40;;;;;;;;;;4911822;29;20579;-89
2023/06/25 16:15:38;;;;;;;4.88;4.38;;;;;;;;;;4911400;29;20053;-90
2023/06/25 16:18:33;;;;;;;5.18;4.72;;;;;;;;;;4904216;29;20186;-89
2023/06/25 16:21:05;;;;;;;6.75;4.78;;;;;;;;;;4891886;28;20105;-90
2023/06/25 16:27:01;;;;;;;7.50;4.50;;;;;;;;;;4967802;28;20041;-89
2023/06/25 16:30:03;;;;;;;5.35;4.93;;;;;;;;;;4967629;28;20061;-90
2023/06/25 16:33:15;;;;;;;5.47;4.60;;;;;;;;;;4937360;28;20050;-90
2023/06/25 16:35:43;;;;;;;5.18;4.78;;;;;;;;;;4953665;28;20052;-90
2023/06/25 16:38:18;;;;;;;5.85;5.13;;;;;;;;;;4958833;28;20066;-90
2023/06/25 16:41:16;;;;;;;5.07;4.63;;;;;;;;;;4978213;28;20033;-90
2023/06/25 16:43:48;;;;;;;4.97;4.57;;;;;;;;;;4984033;28;20417;-90
2023/06/25 16:46:24;;;;;;;5.47;4.60;;;;;;;;;;4979169;28;20041;-90
2023/06/25 16:49:16;;;;;;;5.43;4.93;;;;;;;;;;4970774;28;20140;-89
2023/06/25 16:51:42;;;;;;;5.20;4.68;;;;;;;;;;4941139;28;20146;-89
2023/06/25 16:54:10;;;;;;;5.72;5.10;;;;;;;;;;5014320;28;20063;-90
2023/06/25 16:56:36;;;;;;;5.22;4.72;;;;;;;;;;5036264;28;20059;-90
2023/06/25 16:59:03;;;;;;;5.43;4.90;;;;;;;;;;4997154;28;20051;-89